Time;durP1;ratioP1;P1;durP2;ratioP2;P2;SDS_P1;SDS_P2;PMS_P1;PMS_P2;Temp;Humidity;BMP_temperature;BMP_pressure;BME280_temperature;BME280_humidity;BME280_pressure;Samples;Min_cycle;Max_cycle;Signal;HPM_P1;HPM_P2
2024/02/15 00:00:45;;;;;;;10.07;5.07;;;;;;;14.57;100.00;100673.69;10475465;28;20045;-85
2024/02/15 00:06:07;;;;;;;14.30;4.78;;;;;;;14.81;100.00;100667.41;10465753;28;20053;-85
2024/02/15 00:11:30;;;;;;;8.65;4.50;;;;;;;14.99;100.00;100676.22;10456420;28;20053;-86
2024/02/15 00:16:54;;;;;;;16.27;5.50;;;;;;;15.02;100.00;100678.88;10439566;28;20183;-85
2024/02/15 00:22:17;;;;;;;6.03;4.47;;;;;;;14.97;100.00;100675.31;10469668;28;20049;-86
2024/02/15 00:27:40;;;;;;;10.73;3.90;;;;;;;14.72;100.00;100671.88;10443699;28;20107;-87
2024/02/15 00:33:05;;;;;;;8.30;4.97;;;;;;;14.80;100.00;100674.50;10440930;28;20112;-88
2024/02/15 00:38:27;;;;;;;17.17;7.18;;;;;;;14.55;100.00;100689.63;10455772;28;20061;-87
2024/02/15 00:43:50;;;;;;;18.17;10.98;;;;;;;13.82;100.00;100686.09;10441760;28;20049;-86
2024/02/15 00:49:15;;;;;;;20.83;14.20;;;;;;;13.53;100.00;100684.25;10454464;28;20144;-84
2024/02/15 00:54:38;;;;;;;13.15;7.53;;;;;;;13.54;100.00;100701.06;10400744;28;20062;-84
2024/02/15 01:00:02;;;;;;;18.48;6.75;;;;;;;13.45;100.00;100693.97;10399759;28;20045;-84
2024/02/15 01:05:26;;;;;;;17.60;6.53;;;;;;;13.27;100.00;100685.94;10453788;28;20041;-83
2024/02/15 01:10:49;;;;;;;21.67;10.93;;;;;;;13.13;100.00;100693.84;10438359;28;20045;-83
2024/02/15 01:16:11;;;;;;;20.98;10.18;;;;;;;13.23;100.00;100691.25;10440740;28;20048;-83
2024/02/15 01:21:36;;;;;;;14.20;7.53;;;;;;;13.21;100.00;100696.53;10465101;28;20119;-82
2024/02/15 01:27:01;;;;;;;20.75;8.82;;;;;;;13.28;100.00;100689.50;10443766;28;20392;-82
2024/02/15 01:32:25;;;;;;;15.82;9.85;;;;;;;13.38;100.00;100681.59;10466206;28;20072;-83
2024/02/15 01:37:50;;;;;;;14.10;8.65;;;;;;;13.49;100.00;100674.53;10484664;28;20103;-83
2024/02/15 01:43:12;;;;;;;15.43;10.82;;;;;;;13.55;100.00;100674.53;10480839;28;20057;-82
2024/02/15 01:48:36;;;;;;;17.52;8.57;;;;;;;13.43;100.00;100666.56;10463667;28;20053;-83
2024/02/15 01:54:01;;;;;;;14.38;7.82;;;;;;;13.43;100.00;100668.34;10465889;28;20572;-83
2024/02/15 01:59:29;;;;;;;12.63;5.90;;;;;;;13.55;100.00;100663.03;10453476;28;20049;-82
2024/02/15 02:04:52;;;;;;;16.08;6.25;;;;;;;13.50;100.00;100683.38;10457832;28;20457;-85
2024/02/15 02:10:18;;;;;;;16.52;6.65;;;;;;;13.26;100.00;100675.38;10473373;28;20057;-83
2024/02/15 02:15:42;;;;;;;14.02;4.68;;;;;;;13.20;100.00;100664.72;10432098;28;20449;-81
2024/02/15 02:21:05;;;;;;;9.93;5.82;;;;;;;13.36;100.00;100667.44;10454868;28;20428;-81
2024/02/15 02:26:33;;;;;;;14.65;5.72;;;;;;;13.38;100.00;100676.28;10458780;28;20072;-81
2024/02/15 02:31:57;;;;;;;21.75;8.18;;;;;;;13.38;100.00;100686.00;10477961;28;20056;-82
2024/02/15 02:37:20;;;;;;;17.05;6.70;;;;;;;13.28;100.00;100685.06;10474751;28;20099;-81
2024/02/15 02:42:52;;;;;;;14.65;7.50;;;;;;;12.98;100.00;100706.13;10464190;28;20102;-81
2024/02/15 02:48:14;;;;;;;18.00;6.57;;;;;;;13.19;100.00;100721.28;10453592;28;20144;-81
2024/02/15 02:53:37;;;;;;;16.27;6.15;;;;;;;13.19;100.00;100710.69;10436290;28;20566;-80
2024/02/15 02:59:00;;;;;;;14.90;5.43;;;;;;;13.24;100.00;100704.50;10478503;28;20041;-80
2024/02/15 03:04:23;;;;;;;18.33;5.30;;;;;;;13.07;100.00;100692.91;10477970;28;20045;-81
2024/02/15 03:09:46;;;;;;;24.00;7.82;;;;;;;12.53;100.00;100691.75;10497437;28;20048;-80
2024/02/15 03:15:12;;;;;;;14.90;5.82;;;;;;;12.41;100.00;100717.22;10461692;28;20380;-80
2024/02/15 03:20:35;;;;;;;14.02;4.82;;;;;;;12.56;100.00;100727.94;10462046;28;20137;-81
2024/02/15 03:25:58;;;;;;;19.17;6.72;;;;;;;12.79;100.00;100726.34;10453024;28;20049;-81
2024/02/15 03:31:22;;;;;;;21.27;5.90;;;;;;;12.85;100.00;100736.97;10492489;28;20453;-80
2024/02/15 03:36:45;;;;;;;18.48;8.98;;;;;;;12.87;100.00;100748.44;10471769;28;20041;-80
2024/02/15 03:42:08;;;;;;;17.45;8.13;;;;;;;12.88;100.00;100729.03;10452382;28;20431;-80
2024/02/15 03:47:32;;;;;;;15.18;9.77;;;;;;;12.91;100.00;100737.00;10470692;28;20048;-80
2024/02/15 03:52:55;;;;;;;17.80;10.70;;;;;;;13.05;100.00;100726.50;10498873;28;20485;-80
2024/02/15 03:58:17;;;;;;;19.10;7.65;;;;;;;13.24;100.00;100740.75;10455190;28;20544;-80
2024/02/15 04:03:41;;;;;;;15.30;9.25;;;;;;;13.23;100.00;100744.25;10471364;28;20137;-80
2024/02/15 04:09:04;;;;;;;17.30;5.30;;;;;;;12.98;100.00;100749.41;10462952;28;20080;-80
2024/02/15 04:14:26;;;;;;;11.00;4.00;;;;;;;12.81;100.00;100751.06;10466522;28;20041;-80
2024/02/15 04:19:53;;;;;;;12.10;5.82;;;;;;;12.93;100.00;100745.81;10482349;28;20052;-78
2024/02/15 04:25:17;;;;;;;21.60;4.53;;;;;;;13.34;100.00;100743.41;10511721;28;20114;-79
2024/02/15 04:30:40;;;;;;;13.23;4.53;;;;;;;13.31;100.00;100743.44;10459647;28;20588;-79
2024/02/15 04:36:06;;;;;;;10.13;3.53;;;;;;;13.49;100.00;100753.22;10457277;28;20033;-79
2024/02/15 04:41:29;;;;;;;12.82;4.75;;;;;;;13.57;100.00;100757.66;10471300;28;20139;-78
2024/02/15 04:46:51;;;;;;;22.30;9.45;;;;;;;13.51;100.00;100754.09;10498696;28;20059;-78
2024/02/15 04:52:17;;;;;;;16.48;7.60;;;;;;;13.64;100.00;100760.34;10457746;28;20048;-78
2024/02/15 04:57:40;;;;;;;12.75;4.82;;;;;;;13.73;100.00;100763.88;10442109;28;20037;-78
2024/02/15 05:03:03;;;;;;;13.38;6.28;;;;;;;13.71;100.00;100768.31;10476953;28;20064;-79
2024/02/15 05:08:28;;;;;;;11.93;5.05;;;;;;;13.72;100.00;100777.16;10515125;28;20689;-78
2024/02/15 05:13:50;;;;;;;13.45;5.97;;;;;;;13.76;100.00;100776.28;10501899;28;20047;-79
2024/02/15 05:19:13;;;;;;;11.25;4.10;;;;;;;13.89;100.00;100767.47;10458297;28;20136;-78
2024/02/15 05:24:38;;;;;;;9.55;3.20;;;;;;;13.83;100.00;100786.91;10442309;28;20575;-78
2024/02/15 05:30:01;;;;;;;9.25;3.55;;;;;;;13.79;100.00;100785.13;10444857;28;20049;-79
2024/02/15 05:35:24;;;;;;;15.10;7.03;;;;;;;14.05;100.00;100790.47;10474283;28;20055;-78
2024/02/15 05:40:48;;;;;;;9.38;3.13;;;;;;;14.17;100.00;100782.56;10487938;28;20053;-78
2024/02/15 05:46:12;;;;;;;8.00;2.35;;;;;;;14.06;100.00;100800.22;10461158;28;20406;-78
2024/02/15 05:51:35;;;;;;;11.43;3.15;;;;;;;14.13;100.00;100811.75;10473562;28;20241;-78
2024/02/15 05:57:00;;;;;;;9.27;4.00;;;;;;;14.31;100.00;100806.44;10487251;28;20534;-77
2024/02/15 06:02:23;;;;;;;12.30;5.70;;;;;;;14.51;100.00;100817.13;10482770;28;20045;-77
2024/02/15 06:07:46;;;;;;;55.45;25.85;;;;;;;14.55;100.00;100829.53;10450508;28;20060;-78
2024/02/15 06:13:10;;;;;;;7.75;4.95;;;;;;;14.50;100.00;100824.25;10475679;28;20056;-76
2024/02/15 06:18:33;;;;;;;13.88;5.45;;;;;;;14.49;100.00;100837.50;10488433;28;20657;-78
2024/02/15 06:23:55;;;;;;;15.20;9.70;;;;;;;14.50;100.00;100837.53;10503437;28;20073;-78
2024/02/15 06:40:38;;;;;;;14.73;6.20;;;;;;;13.62;100.00;100878.81;10457728;28;20036;-80
2024/02/15 06:46:03;;;;;;;13.27;3.70;;;;;;;12.44;100.00;100884.94;10437216;28;20049;-79
2024/02/15 06:51:26;;;;;;;11.70;7.13;;;;;;;12.26;100.00;100875.06;10447481;28;20049;-79
2024/02/15 06:56:48;;;;;;;10.52;6.05;;;;;;;12.29;100.00;100863.63;10445520;28;20062;-79
2024/02/15 07:02:12;;;;;;;61.00;50.42;;;;;;;12.55;100.00;100882.41;10468631;28;20060;-79
2024/02/15 07:07:34;;;;;;;22.77;16.67;;;;;;;12.77;100.00;100879.09;10460806;28;20052;-80
2024/02/15 07:12:57;;;;;;;19.40;10.88;;;;;;;12.34;100.00;100873.38;10458666;28;20406;-79
2024/02/15 07:18:22;;;;;;;35.30;23.92;;;;;;;12.25;100.00;100901.53;10440739;28;20139;-78
2024/02/15 07:23:44;;;;;;;17.25;6.20;;;;;;;12.20;100.00;100906.78;10464645;28;20044;-78
2024/02/15 07:29:07;;;;;;;26.40;15.63;;;;;;;12.61;100.00;100901.88;10451018;28;20084;-78
2024/02/15 07:34:32;;;;;;;19.17;12.85;;;;;;;13.37;100.00;100896.34;10462688;28;20045;-77
2024/02/15 07:39:55;;;;;;;17.90;13.30;;;;;;;13.41;100.00;100906.09;10455655;28;20135;-79
2024/02/15 07:45:17;;;;;;;39.65;35.42;;;;;;;13.36;100.00;100894.56;10475158;28;20406;-80
2024/02/15 07:50:43;;;;;;;21.85;15.93;;;;;;;13.64;100.00;100891.22;10473526;28;20049;-78
2024/02/15 07:56:06;;;;;;;26.98;23.42;;;;;;;13.82;100.00;100896.59;10444006;28;20048;-79
2024/02/15 08:01:30;;;;;;;26.15;18.38;;;;;;;13.87;100.00;100899.25;10445375;28;20056;-77
2024/02/15 08:06:55;;;;;;;10.75;9.10;;;;;;;14.54;100.00;100896.84;10473400;28;20049;-78
2024/02/15 08:12:18;;;;;;;13.98;9.60;;;;;;;14.86;100.00;100887.13;10468893;28;20140;-77
2024/02/15 08:17:41;;;;;;;12.10;6.88;;;;;;;15.11;100.00;100878.25;10440981;28;20044;-78
2024/02/15 08:23:05;;;;;;;13.57;11.02;;;;;;;15.30;100.00;100878.22;10472966;28;20107;-78
2024/02/15 08:28:28;;;;;;;11.93;7.57;;;;;;;15.69;100.00;100891.44;10447645;28;20059;-78
2024/02/15 08:33:50;;;;;;;12.15;7.97;;;;;;;15.32;100.00;100905.69;10446490;28;20502;-77
2024/02/15 08:39:16;;;;;;;12.68;8.05;;;;;;;15.24;100.00;100910.13;10453513;28;20040;-78
2024/02/15 08:44:38;;;;;;;11.85;5.40;;;;;;;15.35;100.00;100897.72;10478923;28;20140;-78
2024/02/15 08:50:01;;;;;;;19.42;14.15;;;;;;;15.38;100.00;100884.41;10452422;28;20048;-76
2024/02/15 08:55:26;;;;;;;18.15;8.32;;;;;;;16.61;100.00;100879.44;10480790;28;20044;-79
2024/02/15 09:00:49;;;;;;;6.22;3.58;;;;;;;16.71;100.00;100877.63;10438976;28;20487;-77
2024/02/15 09:06:11;;;;;;;11.88;6.95;;;;;;;16.78;100.00;100883.78;10465315;28;20098;-77
2024/02/15 09:11:35;;;;;;;8.35;4.60;;;;;;;16.66;100.00;100874.09;10438384;28;20098;-77
2024/02/15 09:16:58;;;;;;;9.30;5.95;;;;;;;16.37;100.00;100882.25;10464096;28;20048;-77
2024/02/15 09:22:20;;;;;;;12.02;4.95;;;;;;;16.32;100.00;100897.38;10469425;28;20053;-77
2024/02/15 09:27:45;;;;;;;12.30;3.10;;;;;;;16.14;100.00;100879.75;10469564;28;20224;-77
2024/02/15 09:33:08;;;;;;;9.38;5.20;;;;;;;16.62;100.00;100885.66;10452170;28;20040;-77
2024/02/15 09:38:30;;;;;;;12.60;3.75;;;;;;;17.38;100.00;100872.56;10449206;28;20056;-77
2024/02/15 09:43:54;;;;;;;5.88;2.60;;;;;;;17.72;100.00;100856.19;10451008;28;20049;-77
2024/02/15 09:49:17;;;;;;;14.50;3.38;;;;;;;17.83;100.00;100852.50;10451639;28;20049;-78
2024/02/15 09:54:43;;;;;;;12.10;4.32;;;;;;;18.40;100.00;100830.31;10437610;28;20041;-77
2024/02/15 10:00:13;;;;;;;12.60;4.22;;;;;;;16.89;100.00;100834.78;10451349;28;20041;-82
2024/02/15 10:05:36;;;;;;;20.55;9.43;;;;;;;15.01;100.00;100839.28;10450729;28;20064;-80
2024/02/15 10:11:09;;;;;;;11.63;3.83;;;;;;;14.91;100.00;100853.44;10479137;28;20041;-79
2024/02/15 10:16:35;;;;;;;6.32;3.20;;;;;;;15.30;100.00;100856.94;10464407;28;20106;-78
2024/02/15 10:22:07;;;;;;;12.73;4.43;;;;;;;15.98;100.00;100863.81;10435801;28;20051;-78
2024/02/15 10:27:30;;;;;;;10.00;4.20;;;;;;;16.84;100.00;100849.06;10436899;28;20490;-78
2024/02/15 10:32:54;;;;;;;9.90;3.40;;;;;;;16.97;100.00;100840.94;10449728;28;20095;-79
2024/02/15 10:38:16;;;;;;;8.38;2.63;;;;;;;17.46;100.00;100827.97;10462622;28;20053;-78
2024/02/15 10:43:39;;;;;;;7.03;3.03;;;;;;;16.75;100.00;100828.69;10462517;28;20047;-78
2024/02/15 10:49:03;;;;;;;5.57;1.52;;;;;;;18.01;100.00;100819.28;10424375;28;20521;-80
2024/02/15 10:54:47;;;;;;;8.63;1.92;;;;;;;17.56;100.00;100814.53;10448361;28;20052;-78
2024/02/15 11:00:20;;;;;;;8.27;2.95;;;;;;;17.36;100.00;100818.31;10448848;28;20059;-77
2024/02/15 11:05:45;;;;;;;5.43;1.67;;;;;;;17.36;100.00;100812.97;10446056;28;20131;-78
2024/02/15 11:11:11;;;;;;;11.57;2.20;;;;;;;18.39;100.00;100813.38;10448720;28;20045;-77
2024/02/15 11:16:41;;;;;;;15.80;3.10;;;;;;;18.42;100.00;100799.09;10446671;28;20134;-78
2024/02/15 11:22:11;;;;;;;7.63;2.17;;;;;;;17.01;100.00;100807.13;10446749;28;20049;-78
2024/02/15 11:27:36;;;;;;;9.27;1.77;;;;;;;17.07;100.00;100793.72;10447950;28;20370;-79
2024/02/15 11:32:59;;;;;;;6.53;2.42;;;;;;;17.22;100.00;100782.00;10433933;28;20128;-78
2024/02/15 11:38:30;;;;;;;10.23;2.28;;;;;;;15.36;100.00;100798.41;10449019;28;20132;-80
2024/02/15 11:43:58;;;;;;;7.03;2.22;;;;;;;14.88;100.00;100818.91;10444547;28;20048;-79
2024/02/15 11:49:20;;;;;;;12.33;3.00;;;;;;;15.92;100.00;100804.41;10446337;28;20521;-79
2024/02/15 11:54:44;;;;;;;8.68;2.35;;;;;;;16.19;100.00;100805.13;10430757;28;20037;-81
2024/02/15 12:18:41;;;;;;;11.13;2.70;;;;;;;14.77;100.00;100805.59;10458457;28;20139;-78
2024/02/15 12:22:58;;;;;;;8.00;2.20;;;;;;;14.35;100.00;100806.47;10444849;28;20049;-77
2024/02/15 12:28:22;;;;;;;8.40;3.13;;;;;;;14.53;100.00;100823.34;10439302;28;20052;-77
2024/02/15 12:34:00;;;;;;;4.97;2.65;;;;;;;14.44;100.00;100813.56;10452804;28;20040;-77
2024/02/15 12:39:27;;;;;;;9.50;2.93;;;;;;;14.32;100.00;100818.84;10429101;28;20529;-77
2024/02/15 12:44:51;;;;;;;10.55;3.53;;;;;;;14.33;100.00;100807.34;10453163;28;20293;-78
2024/02/15 12:50:17;;;;;;;10.93;4.38;;;;;;;14.17;100.00;100813.53;10467357;28;20067;-78
2024/02/15 12:55:41;;;;;;;6.78;3.15;;;;;;;14.00;100.00;100809.94;10452372;28;20060;-77
2024/02/15 13:01:05;;;;;;;8.88;3.50;;;;;;;14.21;100.00;100807.34;10421113;28;20064;-78
2024/02/15 13:06:29;;;;;;;7.90;3.17;;;;;;;14.28;100.00;100798.50;10474413;28;20060;-78
2024/02/15 13:11:53;;;;;;;10.48;3.30;;;;;;;14.45;100.00;100807.38;10430158;28;20051;-77
2024/02/15 13:17:17;;;;;;;8.93;4.65;;;;;;;14.13;100.00;100807.31;10470030;28;20045;-78
2024/02/15 13:22:40;;;;;;;8.57;2.70;;;;;;;13.79;100.00;100805.47;10450368;28;20114;-80
2024/02/15 13:28:04;;;;;;;12.38;5.70;;;;;;;13.88;100.00;100805.50;10450318;28;20057;-77
2024/02/15 13:33:31;;;;;;;9.52;3.83;;;;;;;13.93;100.00;100798.44;10452541;28;20067;-78
2024/02/15 13:38:54;;;;;;;11.02;4.05;;;;;;;14.39;100.00;100801.19;10437791;28;20052;-77
2024/02/15 13:44:16;;;;;;;11.20;4.70;;;;;;;14.56;100.00;100803.00;10451377;28;20090;-77
2024/02/15 13:49:40;;;;;;;8.75;3.95;;;;;;;14.81;100.00;100811.81;10450058;28;20053;-78
2024/02/15 13:55:04;;;;;;;7.10;3.25;;;;;;;15.16;100.00;100801.13;10449487;28;20098;-78
2024/02/15 14:00:33;;;;;;;14.10;8.18;;;;;;;15.14;100.00;100801.13;10448180;28;20052;-78
2024/02/15 14:05:57;;;;;;;9.40;5.15;;;;;;;14.95;100.00;100794.09;10437012;28;20060;-78
2024/02/15 14:11:20;;;;;;;6.68;3.30;;;;;;;14.51;100.00;100796.75;10450940;28;20053;-78
2024/02/15 14:16:42;;;;;;;10.57;6.07;;;;;;;14.07;100.00;100807.31;10399346;28;20060;-78
2024/02/15 14:22:09;;;;;;;8.40;3.08;;;;;;;13.72;100.00;100824.91;10431032;28;20052;-78
2024/02/15 14:27:32;;;;;;;6.95;2.70;;;;;;;13.76;100.00;100832.00;10447522;28;20059;-77
2024/02/15 14:33:04;;;;;;;12.02;6.05;;;;;;;13.83;100.00;100833.78;10448022;28;20052;-77
2024/02/15 14:38:28;;;;;;;8.57;4.97;;;;;;;13.75;100.00;100828.47;10430380;28;20102;-77
2024/02/15 14:43:54;;;;;;;8.98;6.38;;;;;;;13.73;100.00;100831.97;10428071;28;20045;-77
2024/02/15 14:49:17;;;;;;;7.22;3.00;;;;;;;13.75;100.00;100833.75;10445912;28;20088;-76
2024/02/15 14:54:41;;;;;;;17.58;10.82;;;;;;;13.79;100.00;100829.34;10434916;28;20041;-77
2024/02/15 15:00:10;;;;;;;9.40;4.43;;;;;;;13.86;100.00;100829.38;10455131;28;20522;-77
2024/02/15 15:16:54;;;;;;;24.25;11.45;;;;;;;14.06;100.00;100848.00;10449780;28;20183;-76
2024/02/15 15:22:19;;;;;;;11.48;10.02;;;;;;;13.95;100.00;100878.94;10438689;28;20111;-77
2024/02/15 15:27:43;;;;;;;16.70;6.30;;;;;;;13.82;100.00;100872.72;10423865;28;20041;-76
2024/02/15 15:33:07;;;;;;;27.38;10.88;;;;;;;13.73;100.00;100875.31;10444834;28;20485;-77
2024/02/15 15:38:29;;;;;;;15.52;5.82;;;;;;;13.65;100.00;100882.38;10450714;28;20057;-76
2024/02/15 15:43:53;;;;;;;16.02;5.28;;;;;;;13.67;100.00;100869.97;10442845;28;20077;-76
2024/02/15 15:49:16;;;;;;;13.85;6.53;;;;;;;13.77;100.00;100878.88;10453619;28;20052;-76
2024/02/15 15:54:41;;;;;;;29.38;16.60;;;;;;;13.87;100.00;100883.34;10441294;28;20059;-77
2024/02/15 16:00:12;;;;;;;17.50;7.63;;;;;;;13.74;100.00;100870.91;10436246;28;20053;-76
2024/02/15 16:05:34;;;;;;;13.77;7.10;;;;;;;13.47;100.00;100877.84;10466915;28;20146;-77
2024/02/15 16:10:57;;;;;;;18.00;8.05;;;;;;;13.02;100.00;100878.41;10479624;28;20055;-80
2024/02/15 16:16:21;;;;;;;16.52;7.28;;;;;;;12.74;100.00;100892.28;10453973;28;20041;-80
2024/02/15 16:21:44;;;;;;;15.25;7.07;;;;;;;12.65;100.00;100903.69;10433983;28;20517;-79
2024/02/15 16:27:06;;;;;;;27.35;18.27;;;;;;;12.63;100.00;100907.19;10478854;28;20045;-79
2024/02/15 16:32:31;;;;;;;10.40;5.50;;;;;;;12.64;100.00;100907.22;10441469;28;20182;-78
2024/02/15 16:37:53;;;;;;;16.02;6.50;;;;;;;12.65;100.00;100906.34;10459878;28;20491;-78
2024/02/15 16:43:16;;;;;;;31.55;19.20;;;;;;;12.65;100.00;100930.19;10433031;28;20065;-81
2024/02/15 16:48:40;;;;;;;21.00;9.45;;;;;;;12.48;100.00;100931.75;10453745;28;20071;-80
2024/02/15 16:54:04;;;;;;;20.17;14.27;;;;;;;12.44;100.00;100951.16;10432539;28;20059;-80
2024/02/15 16:59:27;;;;;;;17.92;9.52;;;;;;;12.14;100.00;100959.59;10441312;28;20057;-80
2024/02/15 17:04:51;;;;;;;13.65;8.52;;;;;;;12.00;100.00;100947.09;10471793;28;20048;-79
2024/02/15 17:10:14;;;;;;;177.05;69.40;;;;;;;12.16;100.00;100938.47;10450273;28;20402;-78
2024/02/15 17:15:36;;;;;;;41.72;34.53;;;;;;;12.22;100.00;100949.09;10457179;28;20501;-77
2024/02/15 17:21:00;;;;;;;66.35;53.53;;;;;;;12.31;100.00;100939.53;10446168;28;20044;-78
2024/02/15 17:26:23;;;;;;;38.40;29.30;;;;;;;12.41;100.00;100947.56;10470645;28;20041;-78
2024/02/15 17:31:50;;;;;;;34.03;28.65;;;;;;;12.29;100.00;100948.31;10447055;28;20450;-81
2024/02/15 17:37:14;;;;;;;32.80;25.92;;;;;;;12.27;100.00;100952.72;10457641;28;20060;-78
2024/02/15 17:42:37;;;;;;;31.50;28.15;;;;;;;12.35;100.00;100958.97;10450442;28;20049;-78
2024/02/15 17:47:59;;;;;;;23.63;18.67;;;;;;;12.18;100.00;100960.53;10478846;28;20053;-80
2024/02/15 17:53:23;;;;;;;24.98;22.45;;;;;;;11.91;100.00;100958.44;10436561;28;20383;-77
2024/02/15 17:58:47;;;;;;;17.40;15.38;;;;;;;11.77;100.00;100957.34;10439266;28;20131;-78
2024/02/15 18:04:09;;;;;;;47.88;43.00;;;;;;;11.77;100.00;100949.41;10437919;28;20426;-76
2024/02/15 18:09:34;;;;;;;29.95;24.95;;;;;;;11.73;100.00;100945.81;10406542;28;20513;-77
2024/02/15 18:14:56;;;;;;;21.77;13.82;;;;;;;11.94;100.00;100947.91;10438248;28;20049;-77
2024/02/15 18:20:20;;;;;;;35.67;20.08;;;;;;;12.09;100.00;100952.47;10476388;28;20049;-77
2024/02/15 18:25:44;;;;;;;33.25;22.42;;;;;;;12.20;100.00;100950.88;10430873;28;20067;-77
2024/02/15 18:31:08;;;;;;;25.17;10.52;;;;;;;12.36;100.00;100958.09;10463273;28;20060;-77
2024/02/15 18:36:32;;;;;;;24.73;19.17;;;;;;;12.30;100.00;100944.81;10422703;28;20135;-79
2024/02/15 18:41:56;;;;;;;17.55;10.77;;;;;;;12.20;100.00;100957.06;10407267;28;20052;-77
2024/02/15 18:47:19;;;;;;;17.63;10.57;;;;;;;12.08;100.00;100950.72;10448283;28;20045;-76
2024/02/15 18:52:42;;;;;;;28.08;19.58;;;;;;;12.02;100.00;100948.88;10443621;28;20146;-77
2024/02/15 18:58:06;;;;;;;46.03;35.95;;;;;;;11.96;100.00;100947.03;10471353;28;20168;-76
2024/02/15 19:03:28;;;;;;;21.65;14.18;;;;;;;12.02;100.00;100940.03;10419572;28;20152;-77
2024/02/15 19:08:50;;;;;;;14.77;9.70;;;;;;;12.03;100.00;100947.13;10436768;28;20049;-76
2024/02/15 19:14:15;;;;;;;23.25;15.68;;;;;;;12.09;100.00;100949.84;10416526;28;20106;-76
2024/02/15 19:19:38;;;;;;;63.83;51.88;;;;;;;12.20;100.00;100957.06;10444899;28;20045;-76
2024/02/15 19:25:00;;;;;;;25.60;19.92;;;;;;;12.32;100.00;100951.00;10452398;28;20073;-76
2024/02/15 19:30:24;;;;;;;14.13;8.60;;;;;;;12.37;100.00;100957.25;10446255;28;20053;-77
2024/02/15 19:35:47;;;;;;;62.97;46.75;;;;;;;12.43;100.00;100953.75;10438517;28;20056;-77
2024/02/15 19:41:09;;;;;;;42.70;37.85;;;;;;;12.48;100.00;100955.59;10424568;28;20083;-76
2024/02/15 19:46:38;;;;;;;40.13;29.75;;;;;;;12.55;100.00;100953.91;10442110;28;20044;-77
2024/02/15 19:52:01;;;;;;;30.58;20.50;;;;;;;12.62;100.00;100951.34;10437470;28;20049;-77
2024/02/15 19:57:23;;;;;;;19.08;13.27;;;;;;;12.73;100.00;100946.16;10428024;28;20155;-77
2024/02/15 20:02:48;;;;;;;25.75;14.65;;;;;;;12.77;100.00;100954.13;10440920;28;20057;-77
2024/02/15 20:08:10;;;;;;;29.08;22.33;;;;;;;12.89;100.00;100960.41;10414626;28;20061;-77
2024/02/15 20:13:33;;;;;;;29.73;22.95;;;;;;;13.05;100.00;100962.34;10444481;28;20060;-77
2024/02/15 20:18:58;;;;;;;30.67;24.40;;;;;;;13.06;100.00;100969.44;10434733;28;20049;-77
2024/02/15 20:24:20;;;;;;;24.40;15.77;;;;;;;13.22;100.00;100966.06;10476700;28;20056;-77
2024/02/15 20:29:43;;;;;;;28.17;21.60;;;;;;;13.21;100.00;100972.22;10434999;28;20064;-78
2024/02/15 20:35:07;;;;;;;17.08;13.93;;;;;;;13.30;100.00;100977.63;10466759;28;20044;-77
2024/02/15 20:40:30;;;;;;;41.28;31.15;;;;;;;13.35;100.00;100970.56;10453420;28;20040;-77
2024/02/15 20:45:52;;;;;;;25.77;15.32;;;;;;;13.52;100.00;100968.06;10480100;28;20041;-77
2024/02/15 20:51:16;;;;;;;15.85;11.48;;;;;;;13.55;100.00;100962.75;10449964;28;20056;-77
2024/02/15 20:56:40;;;;;;;15.32;8.77;;;;;;;13.49;100.00;100965.38;10476854;28;20037;-77
2024/02/15 21:02:03;;;;;;;14.75;9.40;;;;;;;13.49;100.00;100971.56;10454158;28;20156;-77
2024/02/15 21:07:26;;;;;;;16.27;6.90;;;;;;;13.77;100.00;100966.44;10451016;28;20060;-76
2024/02/15 21:12:49;;;;;;;15.68;6.72;;;;;;;13.73;100.00;100956.66;10504394;28;20049;-76
2024/02/15 21:18:11;;;;;;;14.48;8.48;;;;;;;13.72;100.00;100966.41;10488947;28;20057;-76
2024/02/15 21:23:35;;;;;;;12.43;6.43;;;;;;;13.72;100.00;100949.63;10471384;28;20564;-77
2024/02/15 21:28:58;;;;;;;16.55;7.90;;;;;;;13.57;100.00;100955.72;10492237;28;20494;-77
2024/02/15 21:34:21;;;;;;;17.38;10.63;;;;;;;13.77;100.00;100955.84;10437949;28;20063;-75
2024/02/15 21:39:45;;;;;;;17.05;9.55;;;;;;;13.85;100.00;100954.06;10451873;28;20047;-76
2024/02/15 21:45:11;;;;;;;17.00;9.32;;;;;;;13.89;100.00;100955.88;10471784;28;20134;-76
2024/02/15 21:50:33;;;;;;;10.32;6.82;;;;;;;13.90;100.00;100952.38;10457381;28;20052;-77
2024/02/15 21:55:58;;;;;;;11.98;5.45;;;;;;;13.93;100.00;100958.56;10449728;28;20128;-77
2024/02/15 22:01:21;;;;;;;11.82;6.60;;;;;;;13.94;100.00;100956.78;10444301;28;20044;-76
2024/02/15 22:06:46;;;;;;;14.60;8.32;;;;;;;13.99;100.00;100960.34;10419507;28;20486;-77
2024/02/15 22:12:10;;;;;;;10.88;6.20;;;;;;;14.06;100.00;100962.16;10477925;28;20068;-78
2024/02/15 22:17:33;;;;;;;8.13;4.88;;;;;;;14.12;100.00;100953.31;10468735;28;20045;-77
2024/02/15 22:22:56;;;;;;;12.77;7.72;;;;;;;14.15;100.00;100959.56;10408991;28;20056;-78
2024/02/15 22:28:20;;;;;;;14.27;7.15;;;;;;;14.24;100.00;100953.41;10422556;28;20046;-76
2024/02/15 22:33:43;;;;;;;9.50;6.50;;;;;;;14.21;100.00;100953.38;10436167;28;20061;-77
2024/02/15 22:39:08;;;;;;;12.40;7.13;;;;;;;14.27;100.00;100959.59;10436952;28;20203;-78
2024/02/15 22:44:34;;;;;;;16.00;10.95;;;;;;;14.18;100.00;100950.69;10436053;28;20076;-77
2024/02/15 22:49:57;;;;;;;18.00;12.07;;;;;;;14.15;100.00;100961.31;10434647;28;20045;-77
2024/02/15 22:55:19;;;;;;;13.13;8.25;;;;;;;14.05;100.00;100963.03;10430434;28;20045;-77
2024/02/15 23:00:43;;;;;;;17.13;8.68;;;;;;;14.12;100.00;100969.25;10407854;28;20046;-77
2024/02/15 23:06:06;;;;;;;16.10;7.05;;;;;;;14.21;100.00;100959.56;10479273;28;20543;-77
2024/02/15 23:11:31;;;;;;;12.38;6.40;;;;;;;14.30;100.00;100962.28;10455209;28;20044;-77
2024/02/15 23:16:55;;;;;;;7.63;5.75;;;;;;;14.33;100.00;100959.63;10461680;28;20041;-78
2024/02/15 23:22:18;;;;;;;11.23;6.93;;;;;;;14.33;100.00;100946.34;10455352;28;20059;-77
2024/02/15 23:27:40;;;;;;;9.60;5.97;;;;;;;14.20;100.00;100948.94;10511301;28;20435;-77
2024/02/15 23:33:07;;;;;;;15.68;6.70;;;;;;;14.21;100.00;100954.25;10480081;28;20052;-78
2024/02/15 23:44:10;;;;;;;13.43;7.40;;;;;;;14.28;100.00;100952.50;10474169;28;20518;-78
2024/02/15 23:49:34;;;;;;;15.70;7.50;;;;;;;14.25;100.00;100961.34;10420087;28;20171;-78
2024/02/15 23:54:56;;;;;;;14.55;6.65;;;;;;;14.16;100.00;100961.34;10433297;28;20530;-78
